Time;durP1;ratioP1;P1;durP2;ratioP2;P2;SDS_P1;SDS_P2;PMS_P1;PMS_P2;Temp;Humidity;BMP_temperature;BMP_pressure;BME280_temperature;BME280_humidity;BME280_pressure;Samples;Min_cycle;Max_cycle;Signal;HPM_P1;HPM_P2
2023/08/12 00:00:27;;;;;;;7.68;1.80;;;;;;;19.06;100.00;100868.59;5259902;28;20102;-74
2023/08/12 00:02:58;;;;;;;8.65;1.83;;;;;;;19.07;100.00;100870.31;5258740;28;20062;-75
2023/08/12 00:05:28;;;;;;;5.97;1.90;;;;;;;19.11;100.00;100866.50;5258436;28;20456;-74
2023/08/12 00:07:58;;;;;;;8.52;2.10;;;;;;;19.13;100.00;100875.19;5257000;28;20538;-74
2023/08/12 00:10:29;;;;;;;6.93;2.10;;;;;;;19.15;100.00;100873.31;5249519;28;20032;-75
2023/08/12 00:12:59;;;;;;;12.52;2.10;;;;;;;19.27;100.00;100867.22;5255094;28;20024;-74
2023/08/12 00:15:30;;;;;;;5.60;1.70;;;;;;;19.19;100.00;100866.88;5259482;28;20039;-74
2023/08/12 00:18:00;;;;;;;5.05;2.05;;;;;;;19.18;100.00;100865.19;5251607;28;20043;-75
2023/08/12 00:20:30;;;;;;;6.35;2.17;;;;;;;19.13;100.00;100869.06;5258605;28;20040;-74
2023/08/12 00:23:00;;;;;;;3.90;1.70;;;;;;;19.14;100.00;100868.94;5254225;28;20081;-74
2023/08/12 00:25:31;;;;;;;6.53;2.03;;;;;;;19.08;100.00;100866.69;5259349;28;20111;-74
2023/08/12 00:28:01;;;;;;;7.20;1.75;;;;;;;19.07;100.00;100862.34;5258487;28;20370;-74
2023/08/12 00:30:31;;;;;;;6.88;2.05;;;;;;;19.03;100.00;100866.16;5259121;28;20397;-74
2023/08/12 00:33:02;;;;;;;5.70;2.13;;;;;;;19.09;100.00;100868.41;5259295;28;20023;-74
2023/08/12 00:35:32;;;;;;;7.28;1.77;;;;;;;19.08;100.00;100864.06;5254922;28;20488;-74
2023/08/12 00:38:03;;;;;;;4.60;1.55;;;;;;;18.97;100.00;100855.94;5256614;28;20027;-74
2023/08/12 00:40:33;;;;;;;8.45;1.83;;;;;;;19.00;100.00;100857.56;5259524;28;20043;-73
2023/08/12 00:43:03;;;;;;;7.88;1.60;;;;;;;19.02;100.00;100855.66;5263193;22;20106;-73
2023/08/12 00:45:34;;;;;;;5.53;1.73;;;;;;;19.02;100.00;100853.88;5234406;28;20028;-73
2023/08/12 00:48:05;;;;;;;11.38;2.08;;;;;;;18.97;100.00;100845.34;5236991;28;20078;-72
2023/08/12 00:50:37;;;;;;;10.05;2.08;;;;;;;18.95;100.00;100849.91;5219816;28;20040;-73
2023/08/12 00:53:09;;;;;;;7.93;1.92;;;;;;;18.92;100.00;100847.47;5225248;28;20847;-72
2023/08/12 00:55:39;;;;;;;4.65;2.03;;;;;;;19.00;100.00;100853.13;5213335;28;20055;-72
2023/08/12 00:58:10;;;;;;;4.63;1.90;;;;;;;19.01;100.00;100844.22;5215227;28;20021;-72
2023/08/12 01:00:40;;;;;;;8.65;2.10;;;;;;;19.04;100.00;100837.84;5213233;28;20475;-72
2023/08/12 01:03:11;;;;;;;8.07;2.00;;;;;;;19.01;100.00;100838.91;5196160;28;20036;-73
2023/08/12 01:05:42;;;;;;;8.25;2.10;;;;;;;18.92;100.00;100828.09;5218115;28;20550;-73
2023/08/12 01:08:12;;;;;;;8.18;2.40;;;;;;;18.88;100.00;100832.72;5219512;28;20081;-72
2023/08/12 01:10:49;;;;;;;11.07;2.28;;;;;;;18.86;100.00;100834.63;5219293;28;20125;-72
2023/08/12 01:13:30;;;;;;;10.90;3.10;;;;;;;18.82;100.00;100835.78;5220053;28;20505;-72
2023/08/12 01:16:03;;;;;;;10.30;2.60;;;;;;;18.84;100.00;100831.22;5216722;28;20425;-73
2023/08/12 01:18:34;;;;;;;6.25;2.30;;;;;;;18.89;100.00;100829.13;5218207;28;20041;-72
2023/08/12 01:21:07;;;;;;;10.02;2.50;;;;;;;18.83;100.00;100824.25;5202066;28;20052;-73
2023/08/12 01:23:38;;;;;;;7.07;1.80;;;;;;;18.95;100.00;100823.41;5219723;28;20024;-73
2023/08/12 01:26:09;;;;;;;3.63;1.80;;;;;;;18.88;100.00;100822.13;5220579;28;21041;-71
2023/08/12 01:28:39;;;;;;;5.50;2.00;;;;;;;18.80;100.00;100812.97;5215691;28;20030;-73
2023/08/12 01:31:18;;;;;;;10.05;2.85;;;;;;;18.77;100.00;100814.03;5220600;28;20020;-71
2023/08/12 01:33:56;;;;;;;7.68;2.20;;;;;;;18.69;100.00;100810.19;5217887;28;20032;-71
2023/08/12 01:36:30;;;;;;;12.55;2.28;;;;;;;18.71;100.00;100802.16;5217486;28;20025;-72
2023/08/12 01:39:01;;;;;;;7.07;2.85;;;;;;;18.80;100.00;100800.56;5219735;28;20048;-72
2023/08/12 01:41:31;;;;;;;14.02;2.75;;;;;;;18.86;100.00;100796.69;5210127;28;20057;-71
2023/08/12 01:44:03;;;;;;;8.43;2.10;;;;;;;18.98;100.00;100801.19;5218429;28;20078;-72
2023/08/12 01:46:33;;;;;;;4.68;2.10;;;;;;;18.96;100.00;100792.47;5200833;28;20070;-73
2023/08/12 01:49:04;;;;;;;5.00;2.03;;;;;;;18.99;100.00;100787.84;5219761;28;20029;-72
2023/08/12 01:51:34;;;;;;;11.82;2.25;;;;;;;18.97;100.00;100794.19;5220301;28;20036;-72
2023/08/12 01:54:04;;;;;;;6.45;2.40;;;;;;;19.01;100.00;100791.22;5220112;28;20025;-71
2023/08/12 01:56:35;;;;;;;3.65;1.92;;;;;;;19.09;100.00;100788.91;5220644;28;20447;-73
2023/08/12 01:59:05;;;;;;;5.88;1.98;;;;;;;19.15;100.00;100780.56;5220269;28;20239;-72
2023/08/12 02:01:35;;;;;;;6.68;2.40;;;;;;;19.15;100.00;100787.66;5219562;28;20108;-73
2023/08/12 02:04:06;;;;;;;5.53;2.00;;;;;;;19.16;100.00;100774.34;5201913;28;20066;-73
2023/08/12 02:06:36;;;;;;;7.65;2.40;;;;;;;19.17;100.00;100781.34;5220862;28;20430;-73
2023/08/12 02:09:06;;;;;;;9.77;2.20;;;;;;;19.17;100.00;100784.00;5218818;28;20116;-73
2023/08/12 02:11:36;;;;;;;11.77;2.60;;;;;;;19.06;100.00;100777.66;5218672;28;20024;-73
2023/08/12 02:14:07;;;;;;;6.22;2.03;;;;;;;19.09;100.00;100775.66;5214726;28;20064;-73
2023/08/12 02:16:37;;;;;;;9.45;2.17;;;;;;;19.06;100.00;100775.00;5210355;28;20025;-73
2023/08/12 02:19:07;;;;;;;5.18;2.20;;;;;;;19.05;100.00;100776.81;5218749;28;20041;-73
2023/08/12 02:21:38;;;;;;;7.55;2.03;;;;;;;19.10;100.00;100769.41;5217452;28;20116;-71
2023/08/12 02:24:08;;;;;;;5.95;2.17;;;;;;;19.06;100.00;100767.91;5218592;28;20028;-72
2023/08/12 02:26:39;;;;;;;7.03;2.00;;;;;;;19.08;100.00;100765.19;5202014;28;20024;-71
2023/08/12 02:29:09;;;;;;;4.45;1.80;;;;;;;19.16;100.00;100769.03;5219603;28;20091;-72
2023/08/12 02:31:39;;;;;;;6.65;2.35;;;;;;;19.06;100.00;100767.91;5201660;28;20021;-73
2023/08/12 02:34:10;;;;;;;5.30;2.20;;;;;;;19.00;100.00;100768.34;5217027;28;20052;-72
2023/08/12 02:36:40;;;;;;;7.47;2.15;;;;;;;18.94;100.00;100758.13;5219018;28;20029;-72
2023/08/12 02:39:12;;;;;;;5.22;1.70;;;;;;;18.86;100.00;100757.81;5218641;28;20039;-72
2023/08/12 02:41:42;;;;;;;7.55;2.20;;;;;;;18.85;100.00;100750.81;5191426;28;20532;-73
2023/08/12 02:44:12;;;;;;;4.40;2.25;;;;;;;18.91;100.00;100747.75;5217425;28;20029;-73
2023/08/12 02:46:43;;;;;;;8.57;2.10;;;;;;;18.93;100.00;100745.00;5202209;28;20064;-71
2023/08/12 02:49:14;;;;;;;3.22;2.03;;;;;;;19.00;100.00;100740.97;5218581;28;20033;-72
2023/08/12 02:51:44;;;;;;;6.95;2.13;;;;;;;19.05;100.00;100739.72;5217002;28;20133;-73
2023/08/12 02:54:14;;;;;;;6.43;2.30;;;;;;;19.00;100.00;100740.97;5200436;28;20031;-73
2023/08/12 02:56:45;;;;;;;17.02;2.47;;;;;;;18.94;100.00;100736.94;5219660;28;20017;-72
2023/08/12 02:59:15;;;;;;;7.28;2.35;;;;;;;18.83;100.00;100742.13;5218836;28;20017;-72
2023/08/12 03:01:45;;;;;;;11.27;2.10;;;;;;;18.82;100.00;100743.09;5218220;28;20035;-73
2023/08/12 03:04:15;;;;;;;4.32;1.95;;;;;;;18.84;100.00;100750.91;5199876;28;20275;-72
2023/08/12 03:06:46;;;;;;;3.97;2.40;;;;;;;18.84;100.00;100737.66;5219475;28;20161;-73
2023/08/12 03:09:18;;;;;;;10.60;3.22;;;;;;;18.92;100.00;100744.16;5217737;28;20025;-73
2023/08/12 03:11:48;;;;;;;5.05;2.17;;;;;;;18.96;100.00;100744.78;5200181;28;20395;-71
2023/08/12 03:14:18;;;;;;;7.60;2.10;;;;;;;18.91;100.00;100737.16;5217209;28;20048;-73
2023/08/12 03:16:49;;;;;;;7.38;2.25;;;;;;;18.91;100.00;100733.66;5199679;28;20268;-72
2023/08/12 03:19:19;;;;;;;5.87;2.20;;;;;;;18.89;100.00;100731.09;5219034;28;20039;-73
2023/08/12 03:21:49;;;;;;;4.38;2.00;;;;;;;19.06;100.00;100725.53;5200351;28;20275;-72
2023/08/12 03:24:19;;;;;;;4.30;2.22;;;;;;;19.06;100.00;100725.53;5218293;28;20029;-73
2023/08/12 03:26:50;;;;;;;6.35;2.22;;;;;;;19.08;100.00;100710.38;5200306;28;20059;-73
2023/08/12 03:29:20;;;;;;;10.05;2.20;;;;;;;18.98;100.00;100711.09;5218518;28;20036;-73
2023/08/12 03:31:51;;;;;;;4.68;2.22;;;;;;;18.96;100.00;100713.84;5196861;28;20524;-71
2023/08/12 03:34:21;;;;;;;4.88;2.20;;;;;;;18.97;100.00;100720.00;5216222;28;20430;-71
2023/08/12 03:36:51;;;;;;;5.32;2.20;;;;;;;18.98;100.00;100722.56;5196393;28;20036;-71
2023/08/12 03:39:22;;;;;;;8.90;2.35;;;;;;;18.95;100.00;100717.44;5198506;28;20067;-71
2023/08/12 03:41:53;;;;;;;7.72;1.70;;;;;;;18.97;100.00;100707.59;5197321;28;20123;-72
2023/08/12 03:44:23;;;;;;;6.38;2.30;;;;;;;18.99;100.00;100707.50;5218582;28;20474;-71
2023/08/12 03:46:53;;;;;;;5.78;2.53;;;;;;;18.99;100.00;100699.56;5218161;28;20021;-73
2023/08/12 03:49:24;;;;;;;3.70;2.25;;;;;;;19.09;100.00;100693.50;5200070;28;20116;-71
2023/08/12 03:51:54;;;;;;;7.47;2.00;;;;;;;19.11;100.00;100699.56;5217614;28;20032;-72
2023/08/12 03:54:24;;;;;;;6.05;2.30;;;;;;;19.05;100.00;100707.94;5200594;28;20382;-71
2023/08/12 03:56:54;;;;;;;3.92;1.90;;;;;;;19.02;100.00;100699.34;5200511;28;20021;-73
2023/08/12 03:59:25;;;;;;;6.25;2.40;;;;;;;19.10;100.00;100700.50;5218323;28;20411;-71
2023/08/12 04:01:55;;;;;;;9.20;2.38;;;;;;;19.12;100.00;100693.28;5199693;28;20115;-72
2023/08/12 04:04:26;;;;;;;5.50;2.33;;;;;;;19.14;100.00;100706.44;5216962;28;20137;-72
2023/08/12 04:06:56;;;;;;;4.60;1.87;;;;;;;19.13;100.00;100710.06;5217679;28;20041;-73
2023/08/12 04:09:26;;;;;;;6.80;1.92;;;;;;;19.21;100.00;100703.31;5199724;28;20282;-71
2023/08/12 04:11:56;;;;;;;3.67;1.90;;;;;;;19.20;100.00;100698.97;5215544;28;20116;-72
2023/08/12 04:14:27;;;;;;;7.13;2.20;;;;;;;19.18;100.00;100703.53;5217871;28;20056;-72
2023/08/12 04:16:57;;;;;;;4.32;1.90;;;;;;;19.23;100.00;100703.19;5217899;28;20059;-73
2023/08/12 04:19:27;;;;;;;5.83;1.90;;;;;;;19.26;100.00;100705.66;5199932;28;20402;-72
2023/08/12 04:21:58;;;;;;;3.70;2.10;;;;;;;19.29;100.00;100722.16;5217063;28;20267;-73
2023/08/12 04:24:28;;;;;;;5.00;2.25;;;;;;;19.56;100.00;100746.78;5217506;28;20025;-72
2023/08/12 04:26:58;;;;;;;3.97;1.93;;;;;;;19.58;100.00;100736.91;5215883;28;20021;-74
2023/08/12 04:29:28;;;;;;;4.03;2.05;;;;;;;19.75;100.00;100743.72;5199682;28;20275;-71
2023/08/12 04:31:59;;;;;;;8.60;1.90;;;;;;;19.67;100.00;100736.28;5197907;28;20367;-72
2023/08/12 04:34:29;;;;;;;3.83;2.05;;;;;;;19.91;100.00;100749.59;5199488;28;20055;-71
2023/08/12 04:36:59;;;;;;;3.50;1.95;;;;;;;19.81;100.00;100751.22;5193104;28;20385;-73
2023/08/12 04:39:32;;;;;;;4.13;2.33;;;;;;;19.78;100.00;100746.97;5179686;28;20722;-73
2023/08/12 04:42:02;;;;;;;5.40;2.00;;;;;;;19.81;100.00;100751.22;5215312;28;20032;-75
2023/08/12 04:44:32;;;;;;;6.03;1.85;;;;;;;19.79;100.00;100748.66;5199388;28;20409;-72
2023/08/12 04:47:03;;;;;;;6.15;1.73;;;;;;;19.87;100.00;100753.44;5216353;28;20043;-73
2023/08/12 04:49:33;;;;;;;8.63;2.92;;;;;;;19.96;100.00;100753.63;5198733;28;20036;-73
2023/08/12 04:52:04;;;;;;;6.43;3.55;;;;;;;19.97;100.00;100757.97;5216813;28;20463;-73
2023/08/12 04:54:34;;;;;;;5.57;2.78;;;;;;;19.96;100.00;100758.94;5217039;28;20028;-73
2023/08/12 04:57:05;;;;;;;6.93;2.67;;;;;;;20.12;100.00;100766.69;5217496;28;20017;-73
2023/08/12 04:59:35;;;;;;;4.85;2.10;;;;;;;20.07;100.00;100764.38;5199795;28;20294;-73
2023/08/12 05:02:06;;;;;;;2.95;1.60;;;;;;;20.09;100.00;100765.09;5216476;28;20068;-73
2023/08/12 05:04:36;;;;;;;4.60;2.13;;;;;;;19.97;100.00;100763.28;5217607;28;20050;-73
2023/08/12 05:07:06;;;;;;;4.28;1.88;;;;;;;19.95;100.00;100759.91;5199011;28;20773;-72
2023/08/12 05:09:37;;;;;;;4.33;1.70;;;;;;;19.92;100.00;100767.25;5199240;28;20028;-73
2023/08/12 05:12:07;;;;;;;5.07;2.15;;;;;;;19.87;100.00;100764.91;5217247;28;20340;-72
2023/08/12 05:14:39;;;;;;;3.63;1.80;;;;;;;19.89;100.00;100760.34;5218350;28;20474;-73
2023/08/12 05:17:09;;;;;;;10.55;2.10;;;;;;;19.88;100.00;100771.03;5217725;28;20025;-71
2023/08/12 05:19:40;;;;;;;3.75;1.90;;;;;;;19.78;100.00;100768.19;5199766;28;20394;-72
2023/08/12 05:22:10;;;;;;;4.37;2.00;;;;;;;19.77;100.00;100776.28;5216753;28;20029;-73
2023/08/12 05:24:41;;;;;;;5.15;2.10;;;;;;;19.82;100.00;100780.28;5216065;28;20286;-73
2023/08/12 05:27:11;;;;;;;5.88;1.98;;;;;;;19.69;100.00;100779.47;5215515;28;21441;-72
2023/08/12 05:29:41;;;;;;;6.65;2.70;;;;;;;19.67;100.00;100781.38;5217205;28;20513;-73
2023/08/12 05:32:11;;;;;;;4.63;2.20;;;;;;;19.54;100.00;100783.19;5198536;28;20028;-72
2023/08/12 05:34:42;;;;;;;4.18;2.03;;;;;;;19.58;100.00;100783.81;5216361;28;20044;-73
2023/08/12 05:37:12;;;;;;;6.93;2.20;;;;;;;19.38;100.00;100785.19;5216386;28;20044;-70
2023/08/12 05:39:42;;;;;;;4.68;2.45;;;;;;;19.32;100.00;100785.59;5198910;28;20498;-72
2023/08/12 05:42:13;;;;;;;9.15;2.40;;;;;;;19.36;100.00;100791.53;5212995;28;20021;-71
2023/08/12 05:44:43;;;;;;;5.15;2.40;;;;;;;19.33;100.00;100789.09;5215796;28;20381;-72
2023/08/12 05:47:13;;;;;;;7.60;2.50;;;;;;;19.29;100.00;100788.44;5214199;28;20028;-71
2023/08/12 05:49:44;;;;;;;6.73;2.50;;;;;;;19.42;100.00;100781.34;5194172;28;20115;-72
2023/08/12 05:52:14;;;;;;;5.30;2.42;;;;;;;19.37;100.00;100783.47;5213861;28;20311;-72
2023/08/12 05:54:45;;;;;;;7.97;2.30;;;;;;;19.45;100.00;100778.50;5220286;28;20485;-72
2023/08/12 05:57:15;;;;;;;6.97;2.43;;;;;;;19.53;100.00;100775.31;5190419;28;20024;-70
2023/08/12 05:59:45;;;;;;;6.83;2.40;;;;;;;19.58;100.00;100766.09;5193192;28;20758;-72
2023/08/12 06:02:16;;;;;;;6.15;2.42;;;;;;;19.61;100.00;100765.03;5217443;28;20275;-72
2023/08/12 06:04:46;;;;;;;5.30;2.10;;;;;;;19.66;100.00;100758.47;5200248;28;20032;-71
2023/08/12 06:07:16;;;;;;;7.65;2.53;;;;;;;19.59;100.00;100745.75;5219354;28;20029;-71
2023/08/12 06:09:46;;;;;;;6.45;2.55;;;;;;;19.55;100.00;100745.09;5217817;28;20032;-71
2023/08/12 06:12:17;;;;;;;8.50;2.55;;;;;;;19.63;100.00;100737.44;5218645;28;20017;-72
2023/08/12 06:14:47;;;;;;;5.15;2.65;;;;;;;19.78;100.00;100739.00;5219233;28;20498;-72
2023/08/12 06:17:17;;;;;;;10.15;3.10;;;;;;;19.88;100.00;100726.81;5214050;28;20048;-72
2023/08/12 06:19:48;;;;;;;6.15;2.30;;;;;;;20.16;100.00;100721.22;5218892;28;20016;-70
2023/08/12 06:22:18;;;;;;;7.20;2.83;;;;;;;20.09;100.00;100717.34;5217937;28;20029;-72
2023/08/12 06:24:48;;;;;;;5.95;2.38;;;;;;;20.29;100.00;100716.72;5219296;28;20021;-70
2023/08/12 06:27:20;;;;;;;3.88;2.50;;;;;;;20.33;100.00;100717.34;5217240;28;20391;-71
2023/08/12 06:29:50;;;;;;;4.65;2.40;;;;;;;20.32;100.00;100708.53;5218232;28;20526;-71
2023/08/12 06:32:21;;;;;;;6.28;2.97;;;;;;;20.36;100.00;100706.50;5201160;28;20123;-72
2023/08/12 06:34:51;;;;;;;9.70;2.78;;;;;;;20.35;100.00;100705.69;5219307;28;20274;-71
2023/08/12 06:37:21;;;;;;;5.53;2.70;;;;;;;20.57;100.00;100697.81;5212029;28;20024;-72
2023/08/12 06:39:52;;;;;;;6.80;2.50;;;;;;;20.45;100.00;100698.72;5219311;28;20029;-71
2023/08/12 06:42:26;;;;;;;6.40;2.47;;;;;;;20.41;100.00;100705.22;5215671;28;20092;-70
2023/08/12 06:44:58;;;;;;;6.30;3.03;;;;;;;20.33;100.00;100712.88;5259758;22;20314;-74
2023/08/12 06:47:29;;;;;;;5.35;2.42;;;;;;;20.38;100.00;100718.72;5235605;28;20084;-75
2023/08/12 06:49:59;;;;;;;8.48;2.67;;;;;;;20.45;100.00;100725.25;5235343;28;20023;-75
2023/08/12 06:52:30;;;;;;;5.20;2.70;;;;;;;20.52;100.00;100726.53;5236860;28;20040;-75
2023/08/12 06:55:00;;;;;;;5.87;2.93;;;;;;;20.43;100.00;100724.53;5226393;28;20440;-75
2023/08/12 06:57:30;;;;;;;8.63;3.17;;;;;;;20.42;100.00;100706.03;5222923;28;20370;-75
2023/08/12 07:00:01;;;;;;;5.00;2.70;;;;;;;20.51;100.00;100706.22;5225215;28;20596;-74
2023/08/12 07:02:31;;;;;;;5.55;3.00;;;;;;;20.61;100.00;100707.25;5224725;28;20278;-74
2023/08/12 07:05:02;;;;;;;7.30;2.90;;;;;;;20.74;100.00;100713.34;5212551;28;20572;-75
2023/08/12 07:07:32;;;;;;;8.23;2.80;;;;;;;20.72;100.00;100712.59;5221497;28;20835;-75
2023/08/12 07:10:04;;;;;;;4.13;2.47;;;;;;;20.81;100.00;100718.06;5221962;28;20029;-75
2023/08/12 07:12:35;;;;;;;5.53;3.45;;;;;;;20.77;100.00;100721.94;5225442;28;20302;-74
2023/08/12 07:15:05;;;;;;;10.45;2.72;;;;;;;20.88;100.00;100719.31;5222606;28;20425;-75
2023/08/12 07:17:36;;;;;;;3.70;2.30;;;;;;;20.88;100.00;100731.78;5224247;28;20017;-74
2023/08/12 07:20:07;;;;;;;6.80;2.90;;;;;;;20.90;100.00;100725.38;5220245;28;20033;-75
2023/08/12 07:22:37;;;;;;;5.43;2.88;;;;;;;21.01;100.00;100716.59;5210325;28;20354;-74
2023/08/12 07:25:08;;;;;;;5.97;2.90;;;;;;;20.96;100.00;100721.41;5223342;28;20103;-74
2023/08/12 07:27:38;;;;;;;6.05;2.67;;;;;;;20.86;100.00;100723.91;5223475;28;20325;-74
2023/08/12 07:30:09;;;;;;;6.38;2.70;;;;;;;20.79;100.00;100724.47;5223144;28;20386;-74
2023/08/12 07:32:39;;;;;;;5.80;2.75;;;;;;;20.82;100.00;100726.88;5223590;28;20030;-74
2023/08/12 07:35:10;;;;;;;4.50;2.40;;;;;;;20.80;100.00;100723.50;5220421;28;20414;-74
2023/08/12 07:37:41;;;;;;;8.05;2.70;;;;;;;20.74;100.00;100713.34;5224412;28;20024;-74
2023/08/12 07:40:12;;;;;;;7.43;2.70;;;;;;;20.83;100.00;100708.22;5208719;28;20033;-75
2023/08/12 07:42:42;;;;;;;6.32;2.58;;;;;;;20.79;100.00;100705.84;5223009;28;20379;-75
2023/08/12 07:45:13;;;;;;;4.33;2.37;;;;;;;20.77;100.00;100713.09;5221227;28;20112;-74
2023/08/12 07:47:43;;;;;;;4.82;2.50;;;;;;;20.76;100.00;100722.03;5227642;28;20804;-74
2023/08/12 07:50:13;;;;;;;4.65;2.40;;;;;;;20.78;100.00;100720.97;5223112;28;20091;-75
2023/08/12 07:52:44;;;;;;;5.67;2.77;;;;;;;20.71;100.00;100717.06;5223838;28;20021;-74
2023/08/12 07:55:15;;;;;;;8.68;3.03;;;;;;;20.73;100.00;100714.31;5222536;28;20275;-74
2023/08/12 07:57:45;;;;;;;7.32;2.63;;;;;;;20.76;100.00;100714.91;5221025;28;20533;-75
2023/08/12 08:00:16;;;;;;;8.70;3.00;;;;;;;20.85;100.00;100721.34;5219666;28;20029;-74
2023/08/12 08:02:46;;;;;;;9.07;2.75;;;;;;;20.88;100.00;100718.50;5221138;28;20024;-74
2023/08/12 08:05:16;;;;;;;7.83;2.70;;;;;;;21.04;100.00;100721.69;5222191;28;20028;-74
2023/08/12 08:07:47;;;;;;;7.57;3.10;;;;;;;20.99;100.00;100718.50;5222413;28;20670;-74
2023/08/12 08:10:18;;;;;;;4.53;2.67;;;;;;;21.10;100.00;100718.56;5223086;28;20286;-73
2023/08/12 08:12:48;;;;;;;5.43;2.83;;;;;;;21.10;100.00;100719.38;5222976;28;20029;-74
2023/08/12 08:15:18;;;;;;;7.95;3.00;;;;;;;21.06;100.00;100723.25;5204717;28;20024;-74
2023/08/12 08:17:49;;;;;;;6.43;2.70;;;;;;;21.10;100.00;100718.56;5210460;28;20028;-72
2023/08/12 08:20:19;;;;;;;9.35;3.13;;;;;;;21.06;100.00;100717.94;5221129;28;20052;-74
2023/08/12 08:22:49;;;;;;;6.53;2.65;;;;;;;21.08;100.00;100721.31;5222951;28;20115;-73
2023/08/12 08:25:19;;;;;;;6.93;2.72;;;;;;;21.14;100.00;100717.34;5202280;28;20042;-74
2023/08/12 08:27:50;;;;;;;6.32;2.85;;;;;;;21.13;100.00;100720.97;5219149;28;20186;-74
2023/08/12 08:30:20;;;;;;;6.10;2.88;;;;;;;21.31;100.00;100706.25;5220035;28;20052;-74
2023/08/12 08:32:51;;;;;;;8.98;2.92;;;;;;;21.51;100.00;100717.06;5220043;28;20029;-72
2023/08/12 08:35:21;;;;;;;8.55;2.53;;;;;;;21.58;100.00;100709.44;5211201;28;20038;-74
2023/08/12 08:37:53;;;;;;;5.57;2.53;;;;;;;21.75;100.00;100712.47;5219593;28;20387;-72
2023/08/12 08:40:23;;;;;;;5.72;2.67;;;;;;;21.82;100.00;100710.19;5221294;28;20040;-74
2023/08/12 08:42:53;;;;;;;5.78;2.40;;;;;;;21.81;100.00;100714.69;5218758;28;20672;-73
2023/08/12 08:45:25;;;;;;;6.25;2.58;;;;;;;21.82;100.00;100707.53;5221469;28;20024;-74
2023/08/12 08:47:56;;;;;;;4.05;2.50;;;;;;;21.73;100.00;100716.25;5220051;28;20059;-72
2023/08/12 08:50:29;;;;;;;5.70;2.78;;;;;;;21.78;100.00;100711.41;5221804;28;20039;-74
2023/08/12 08:53:02;;;;;;;11.82;2.50;;;;;;;21.84;100.00;100708.25;5221151;28;20409;-73
2023/08/12 08:55:32;;;;;;;4.28;2.20;;;;;;;21.77;100.00;100704.38;5222340;28;20043;-74
2023/08/12 08:58:03;;;;;;;4.63;2.40;;;;;;;21.70;100.00;100712.00;5218818;28;20409;-73
2023/08/12 09:00:35;;;;;;;3.67;2.50;;;;;;;21.73;100.00;100713.59;5222869;28;20556;-74
2023/08/12 09:03:06;;;;;;;5.28;2.50;;;;;;;21.64;100.00;100715.16;5218327;28;20045;-73
2023/08/12 09:05:38;;;;;;;8.00;2.70;;;;;;;21.63;100.00;100712.59;5221381;28;20035;-74
2023/08/12 09:08:10;;;;;;;5.72;2.80;;;;;;;21.57;100.00;100716.56;5219006;28;20086;-74
2023/08/12 09:10:41;;;;;;;3.97;2.53;;;;;;;21.55;100.00;100709.69;5220154;28;20036;-74
2023/08/12 09:13:13;;;;;;;4.47;2.75;;;;;;;21.50;100.00;100707.38;5219274;28;20048;-74
2023/08/12 09:15:44;;;;;;;6.18;2.47;;;;;;;21.59;100.00;100703.16;5226685;28;20112;-74
2023/08/12 09:18:16;;;;;;;5.65;2.60;;;;;;;21.63;100.00;100704.63;5224844;28;20416;-73
2023/08/12 09:20:46;;;;;;;5.50;2.85;;;;;;;21.62;100.00;100692.25;5220418;28;20078;-74
2023/08/12 09:23:17;;;;;;;4.17;2.50;;;;;;;21.64;100.00;100695.69;5225363;28;20465;-73
2023/08/12 09:25:48;;;;;;;3.83;2.25;;;;;;;21.61;100.00;100695.88;5223062;28;20283;-72
2023/08/12 09:28:18;;;;;;;7.05;2.47;;;;;;;21.71;100.00;100678.28;5223423;28;20406;-74
2023/08/12 09:30:54;;;;;;;8.50;2.40;;;;;;;21.66;100.00;100672.44;5224509;28;20035;-73
2023/08/12 09:33:28;;;;;;;3.83;2.30;;;;;;;21.62;100.00;100677.19;5223059;28;20033;-74
2023/08/12 09:35:58;;;;;;;4.95;2.10;;;;;;;21.86;100.00;100679.69;5221450;28;20508;-72
2023/08/12 09:38:29;;;;;;;4.88;2.10;;;;;;;21.96;100.00;100672.66;5228917;28;20032;-74
2023/08/12 09:41:00;;;;;;;6.38;2.40;;;;;;;21.90;100.00;100675.84;5226453;28;20016;-73
2023/08/12 09:43:31;;;;;;;4.25;2.60;;;;;;;21.95;100.00;100676.28;5224605;28;20260;-74
2023/08/12 09:46:02;;;;;;;3.90;2.20;;;;;;;21.94;100.00;100674.59;5222927;28;20128;-73
2023/08/12 09:48:32;;;;;;;5.63;2.15;;;;;;;21.96;100.00;100675.31;5224290;28;20044;-74
2023/08/12 09:51:03;;;;;;;3.88;2.42;;;;;;;21.96;100.00;100672.66;5225177;28;20451;-73
2023/08/12 09:53:34;;;;;;;5.10;2.17;;;;;;;21.87;100.00;100670.72;5219668;28;20025;-72
2023/08/12 09:56:11;;;;;;;5.03;2.47;;;;;;;21.75;100.00;100651.28;5218861;28;20045;-73
2023/08/12 09:58:43;;;;;;;3.63;1.85;;;;;;;21.92;100.00;100649.94;5220485;28;20081;-74
2023/08/12 10:01:16;;;;;;;4.63;2.22;;;;;;;21.94;100.00;100645.31;5221154;28;20041;-74
2023/08/12 10:03:49;;;;;;;4.65;2.00;;;;;;;21.93;100.00;100640.97;5219497;28;20065;-74
2023/08/12 10:06:20;;;;;;;4.55;2.40;;;;;;;21.96;100.00;100643.38;5220865;28;20116;-74
2023/08/12 10:08:51;;;;;;;3.72;2.13;;;;;;;21.98;100.00;100644.97;5221733;28;20024;-74
2023/08/12 10:11:22;;;;;;;5.80;1.88;;;;;;;22.10;100.00;100641.28;5222904;28;20033;-74
2023/08/12 10:13:52;;;;;;;3.58;2.00;;;;;;;22.46;100.00;100632.94;5223260;28;20130;-74
2023/08/12 10:16:23;;;;;;;3.55;2.15;;;;;;;23.13;100.00;100624.47;5222743;28;20044;-74
2023/08/12 10:18:54;;;;;;;9.23;2.20;;;;;;;23.63;100.00;100617.34;5222451;28;20033;-74
2023/08/12 10:21:25;;;;;;;4.18;2.22;;;;;;;24.45;100.00;100600.91;5223911;28;20124;-75
2023/08/12 10:23:58;;;;;;;2.83;1.55;;;;;;;24.70;100.00;100603.88;5221349;28;20117;-75
2023/08/12 10:26:29;;;;;;;3.75;2.08;;;;;;;24.60;100.00;100605.72;5224152;28;20123;-74
2023/08/12 10:29:00;;;;;;;6.50;1.95;;;;;;;24.71;100.00;100596.72;5223071;28;20112;-73
2023/08/12 10:31:30;;;;;;;4.15;2.05;;;;;;;24.90;100.00;100593.00;5224118;28;20115;-74
2023/08/12 10:34:00;;;;;;;3.22;1.95;;;;;;;24.97;100.00;100602.13;5222275;28;20033;-72
2023/08/12 10:36:31;;;;;;;5.03;1.60;;;;;;;25.45;98.86;100591.28;5222391;28;20334;-74
2023/08/12 10:39:02;;;;;;;3.17;1.98;;;;;;;25.48;100.00;100594.50;5224742;28;20037;-73
2023/08/12 10:41:35;;;;;;;3.50;1.85;;;;;;;25.36;96.80;100610.91;5224666;28;20032;-75
2023/08/12 10:44:06;;;;;;;5.82;1.70;;;;;;;25.27;97.40;100619.78;5223556;28;20383;-73
2023/08/12 10:46:37;;;;;;;6.30;2.20;;;;;;;25.34;98.34;100623.59;5223120;28;20051;-74
2023/08/12 10:49:09;;;;;;;5.03;2.08;;;;;;;25.40;98.12;100623.00;5222276;28;21251;-75
2023/08/12 10:51:51;;;;;;;4.20;2.03;;;;;;;25.53;99.02;100626.19;5224390;28;20124;-74
2023/08/12 10:54:26;;;;;;;5.75;1.90;;;;;;;25.28;98.32;100630.38;5222845;28;20021;-75
2023/08/12 10:57:03;;;;;;;4.53;1.80;;;;;;;24.97;100.00;100639.56;5221307;28;20131;-72
2023/08/12 10:59:45;;;;;;;4.22;1.95;;;;;;;25.04;100.00;100638.03;5225145;28;20090;-74
2023/08/12 11:02:18;;;;;;;4.75;2.20;;;;;;;25.17;100.00;100629.69;5221228;28;20530;-75
2023/08/12 11:05:02;;;;;;;3.20;1.65;;;;;;;24.97;100.00;100620.84;5225040;28;20032;-72
2023/08/12 11:07:37;;;;;;;3.60;1.77;;;;;;;25.19;99.29;100617.03;5222818;28;20056;-74
2023/08/12 11:10:19;;;;;;;3.53;1.80;;;;;;;24.92;100.00;100612.41;5221181;28;20529;-74
2023/08/12 11:12:52;;;;;;;5.28;2.08;;;;;;;24.82;100.00;100608.91;5225771;28;20061;-74
2023/08/12 11:15:36;;;;;;;3.35;1.92;;;;;;;24.86;100.00;100617.50;5223948;28;20382;-74
2023/08/12 11:18:12;;;;;;;5.80;2.35;;;;;;;24.91;100.00;100615.22;5220320;28;20112;-72
2023/08/12 11:20:43;;;;;;;4.47;2.08;;;;;;;25.32;100.00;100613.03;5227509;28;20029;-74
2023/08/12 11:23:14;;;;;;;2.75;1.80;;;;;;;25.71;100.00;100605.66;5223000;28;20036;-74
2023/08/12 11:25:45;;;;;;;3.08;2.03;;;;;;;26.14;100.00;100605.84;5228294;28;20033;-74
2023/08/12 11:28:19;;;;;;;2.63;1.63;;;;;;;26.18;99.30;100609.91;5223702;28;20051;-75
2023/08/12 11:30:49;;;;;;;5.18;2.20;;;;;;;26.23;96.32;100596.88;5227425;28;20035;-74
2023/08/12 11:33:21;;;;;;;3.35;1.80;;;;;;;26.17;96.86;100592.13;5224826;28;20037;-75